createdAt,value
2019-01-25T00:02:07.066Z,-1.20
2019-01-25T00:04:37.410Z,-1.20
2019-01-25T00:07:07.683Z,-1.20
2019-01-25T00:09:37.933Z,-1.20
2019-01-25T00:12:08.110Z,-1.20
2019-01-25T00:14:38.719Z,-1.20
2019-01-25T00:17:09.100Z,-1.30
2019-01-25T00:19:39.444Z,-1.30
2019-01-25T00:22:09.775Z,-1.30
2019-01-25T00:24:40.059Z,-1.20
2019-01-25T00:27:10.331Z,-1.20
2019-01-25T00:29:40.547Z,-1.10
2019-01-25T00:32:10.928Z,-1.00
2019-01-25T00:34:41.524Z,-1.00
2019-01-25T00:37:11.853Z,-1.10
2019-01-25T00:39:42.143Z,-1.10
2019-01-25T00:42:12.541Z,-1.20
2019-01-25T00:44:42.758Z,-1.10
2019-01-25T00:47:13.178Z,-1.10
2019-01-25T00:49:43.779Z,-1.20
2019-01-25T00:52:14.104Z,-1.20
2019-01-25T00:54:44.376Z,-1.10
2019-01-25T00:57:14.655Z,-1.20
2019-01-25T00:59:44.993Z,-1.20
2019-01-25T01:02:15.253Z,-1.10
2019-01-25T01:04:45.583Z,-1.00
2019-01-25T01:07:15.838Z,-1.00
2019-01-25T01:09:46.025Z,-1.00
2019-01-25T01:12:16.280Z,-1.00
2019-01-25T01:14:46.540Z,-1.00
2019-01-25T01:17:16.917Z,-1.10
2019-01-25T01:19:47.249Z,-0.90
2019-01-25T01:22:17.511Z,-0.90
2019-01-25T01:24:47.958Z,-0.90
2019-01-25T01:27:18.353Z,-1.00
2019-01-25T01:29:48.631Z,-1.00
2019-01-25T01:32:19.173Z,-1.00
2019-01-25T01:34:49.545Z,-1.00
2019-01-25T01:37:19.836Z,-1.10
2019-01-25T01:39:50.195Z,-1.00
2019-01-25T01:42:20.474Z,-1.10
2019-01-25T01:44:50.827Z,-1.00
2019-01-25T01:47:21.059Z,-0.90
2019-01-25T01:49:51.316Z,-1.00
2019-01-25T01:52:21.695Z,-0.90
2019-01-25T01:54:51.977Z,-0.80
2019-01-25T01:57:22.190Z,-0.90
2019-01-25T01:59:52.558Z,-0.90
2019-01-25T02:02:22.923Z,-0.90
2019-01-25T02:04:53.250Z,-1.00
2019-01-25T02:07:23.532Z,-0.90
2019-01-25T02:09:53.966Z,-1.00
2019-01-25T02:12:24.349Z,-1.00
2019-01-25T02:14:54.563Z,-1.00
2019-01-25T02:17:24.882Z,-1.00
2019-01-25T02:19:55.118Z,-0.90
2019-01-25T02:22:25.334Z,-0.70
2019-01-25T02:24:55.699Z,-0.70
2019-01-25T02:27:25.949Z,-0.80
2019-01-25T02:29:56.205Z,-0.70
2019-01-25T02:32:26.492Z,-0.80
2019-01-25T02:34:56.697Z,-0.90
2019-01-25T02:37:26.958Z,-1.00
2019-01-25T02:39:57.262Z,-1.00
2019-01-25T02:42:28.548Z,-1.00
2019-01-25T02:44:58.725Z,-1.00
2019-01-25T02:47:28.944Z,-1.00
2019-01-25T02:49:59.222Z,-0.90
2019-01-25T02:52:29.514Z,-0.90
2019-01-25T02:54:59.835Z,-0.90
2019-01-25T02:57:30.113Z,-0.80
2019-01-25T03:00:01.267Z,-0.80
2019-01-25T03:02:31.627Z,-0.80
2019-01-25T03:05:01.981Z,-0.90
2019-01-25T03:07:32.255Z,-1.00
2019-01-25T03:10:02.610Z,-1.00
2019-01-25T03:12:33.975Z,-1.00
2019-01-25T03:15:04.781Z,-0.90
2019-01-25T03:17:35.109Z,-0.80
2019-01-25T03:20:06.122Z,-0.90
2019-01-25T03:22:36.473Z,-1.00
2019-01-25T03:25:07.851Z,-0.90
2019-01-25T03:27:38.536Z,-0.90
2019-01-25T03:30:10.608Z,-0.90
2019-01-25T03:32:40.966Z,-0.90
2019-01-25T03:35:12.504Z,-1.00
2019-01-25T03:37:42.886Z,-1.00
2019-01-25T03:40:16.139Z,-0.90
2019-01-25T03:42:46.353Z,-0.90
2019-01-25T03:45:17.004Z,-0.70
2019-01-25T03:47:47.394Z,-0.80
2019-01-25T03:50:20.828Z,-0.80
2019-01-25T03:52:51.165Z,-0.80
2019-01-25T03:55:21.667Z,-0.80
2019-01-25T03:57:51.907Z,-0.90
2019-01-25T04:00:23.944Z,-1.00
2019-01-25T04:02:54.282Z,-1.00
2019-01-25T04:05:24.781Z,-0.90
2019-01-25T04:07:55.175Z,-0.80
2019-01-25T04:10:26.936Z,-0.70
2019-01-25T04:12:57.341Z,-0.80
2019-01-25T04:15:30.093Z,-0.60
2019-01-25T04:18:00.375Z,-0.70
2019-01-25T04:20:30.817Z,-0.80
2019-01-25T04:23:01.116Z,-0.70
2019-01-25T04:25:32.313Z,-0.70
2019-01-25T04:28:02.477Z,-0.70
2019-01-25T04:30:33.213Z,-0.70
2019-01-25T04:33:03.630Z,-0.80
2019-01-25T04:35:35.446Z,-0.90
2019-01-25T04:38:05.929Z,-0.90
2019-01-25T04:40:36.563Z,-0.90
2019-01-25T04:43:08.128Z,-0.90
2019-01-25T04:45:38.614Z,-0.90
2019-01-25T04:48:14.201Z,-0.80
2019-01-25T04:50:44.455Z,-0.80
2019-01-25T04:53:14.736Z,-0.80
2019-01-25T04:55:45.038Z,-0.70
2019-01-25T04:58:19.355Z,-0.70
2019-01-25T05:00:49.679Z,-0.70
2019-01-25T05:03:19.961Z,-0.80
2019-01-25T05:05:50.320Z,-0.80
2019-01-25T05:08:23.373Z,-0.80
2019-01-25T05:10:53.775Z,-0.80
2019-01-25T05:13:24.050Z,-0.80
2019-01-25T05:15:54.423Z,-0.80
2019-01-25T05:18:24.638Z,-0.80
2019-01-25T05:20:55.014Z,-0.80
2019-01-25T05:23:25.177Z,-0.80
2019-01-25T05:25:55.472Z,-0.70
2019-01-25T05:28:25.794Z,-0.80
2019-01-25T05:31:01.172Z,-0.70
2019-01-25T05:33:31.501Z,-0.70
2019-01-25T05:36:01.736Z,-0.70
2019-01-25T05:38:32.014Z,-0.60
2019-01-25T05:41:02.366Z,-0.70
2019-01-25T05:43:41.162Z,-0.70
2019-01-25T05:46:11.449Z,-0.70
2019-01-25T05:48:41.757Z,-0.80
2019-01-25T05:51:12.100Z,-0.70
2019-01-25T05:53:53.323Z,-0.60
2019-01-25T05:56:24.375Z,-0.60
2019-01-25T05:58:54.615Z,-0.60
2019-01-25T06:01:26.414Z,-0.50
2019-01-25T06:03:56.798Z,-0.60
2019-01-25T06:06:27.162Z,-0.60
2019-01-25T06:08:57.327Z,-0.70
2019-01-25T06:11:27.556Z,-0.80
2019-01-25T06:13:57.818Z,-0.80
2019-01-25T06:16:28.122Z,-0.80
2019-01-25T06:18:58.345Z,-0.90
2019-01-25T06:21:28.733Z,-0.90
2019-01-25T06:23:59.082Z,-0.80
2019-01-25T06:26:29.452Z,-0.80
2019-01-25T06:28:59.827Z,-0.80
2019-01-25T06:31:30.173Z,-0.90
2019-01-25T06:34:00.395Z,-0.90
2019-01-25T06:36:30.693Z,-0.90
2019-01-25T06:39:00.962Z,-0.90
2019-01-25T06:41:32.184Z,-0.90
2019-01-25T06:44:02.413Z,-0.90
2019-01-25T06:46:32.651Z,-0.90
2019-01-25T06:49:02.975Z,-0.90
2019-01-25T06:51:33.311Z,-0.80
2019-01-25T06:54:03.569Z,-0.80
2019-01-25T06:56:33.822Z,-0.80
2019-01-25T06:59:12.009Z,-0.70
2019-01-25T07:01:46.470Z,-0.70
2019-01-25T07:04:17.651Z,-0.60
2019-01-25T07:06:47.929Z,-0.60
2019-01-25T07:09:18.554Z,-0.60
2019-01-25T07:11:51.820Z,-0.70
2019-01-25T07:14:20.635Z,-0.70
2019-01-25T07:16:50.832Z,-0.60
2019-01-25T07:19:21.175Z,-0.60
2019-01-25T07:21:51.350Z,-0.60
2019-01-25T07:24:21.676Z,-0.60
2019-01-25T07:26:51.910Z,-0.60
2019-01-25T07:29:22.126Z,-0.50
2019-01-25T07:31:52.328Z,-0.50
2019-01-25T07:34:22.706Z,-0.50
2019-01-25T07:36:52.887Z,-0.50
2019-01-25T07:39:27.595Z,-0.50
2019-01-25T07:41:59.401Z,-0.50
2019-01-25T07:44:29.894Z,-0.50
2019-01-25T07:47:00.294Z,-0.50
2019-01-25T07:49:30.493Z,-0.40
2019-01-25T07:52:00.808Z,-0.40
2019-01-25T07:54:31.072Z,-0.40
2019-01-25T07:57:01.352Z,-0.40
2019-01-25T07:59:31.602Z,-0.40
2019-01-25T08:02:02.056Z,-0.30
2019-01-25T08:04:33.392Z,-0.30
2019-01-25T08:07:03.709Z,-0.30
2019-01-25T08:09:33.941Z,-0.20
2019-01-25T08:12:07.534Z,-0.20
2019-01-25T08:14:36.552Z,-0.30
2019-01-25T08:17:06.887Z,-0.30
2019-01-25T08:19:37.213Z,-0.20
2019-01-25T08:22:08.430Z,-0.10
2019-01-25T08:24:38.711Z,-0.10
2019-01-25T08:27:09.065Z,0.00
2019-01-25T08:29:39.537Z,0.00
2019-01-25T08:32:09.902Z,-0.10
2019-01-25T08:34:40.524Z,-0.10
2019-01-25T08:37:10.855Z,-0.10
2019-01-25T08:39:41.154Z,0.00
2019-01-25T08:42:15.476Z,0.00
2019-01-25T08:44:44.343Z,0.10
2019-01-25T08:47:14.658Z,0.00
2019-01-25T08:49:44.944Z,0.10
2019-01-25T08:52:15.317Z,0.10
2019-01-25T08:54:45.593Z,0.10
2019-01-25T08:57:15.831Z,0.10
2019-01-25T08:59:46.145Z,0.20
2019-01-25T09:02:16.389Z,0.20
2019-01-25T09:04:46.734Z,0.20
2019-01-25T09:07:17.062Z,0.30
2019-01-25T09:09:47.253Z,0.30
2019-01-25T09:12:23.206Z,0.40
2019-01-25T09:14:49.440Z,0.40
2019-01-25T09:17:19.637Z,0.50
2019-01-25T09:19:49.867Z,0.50
2019-01-25T09:22:20.123Z,0.50
2019-01-25T09:24:50.331Z,0.60
2019-01-25T09:27:20.766Z,0.50
2019-01-25T09:29:51.083Z,0.50
2019-01-25T09:32:21.317Z,0.50
2019-01-25T09:34:51.615Z,0.50
2019-01-25T09:37:21.888Z,0.60
2019-01-25T09:39:52.123Z,0.60
2019-01-25T09:42:22.509Z,0.60
2019-01-25T09:44:52.685Z,0.60
2019-01-25T09:47:24.088Z,0.70
2019-01-25T09:49:54.413Z,0.70
2019-01-25T09:52:24.635Z,0.70
2019-01-25T09:54:54.780Z,0.80
2019-01-25T09:57:25.082Z,0.70
2019-01-25T09:59:56.587Z,0.70
2019-01-25T10:02:26.883Z,0.70
2019-01-25T10:04:57.080Z,0.80
2019-01-25T10:07:27.618Z,0.90
2019-01-25T10:09:57.808Z,1.00
2019-01-25T10:12:28.103Z,1.10
2019-01-25T10:14:58.357Z,1.10
2019-01-25T10:17:28.608Z,1.20
2019-01-25T10:19:58.883Z,1.20
2019-01-25T10:22:29.159Z,1.40
2019-01-25T10:24:59.454Z,1.40
2019-01-25T10:27:29.722Z,1.40
2019-01-25T10:30:00.007Z,1.40
2019-01-25T10:32:30.300Z,1.40
2019-01-25T10:35:00.908Z,1.40
2019-01-25T10:37:31.193Z,1.50
2019-01-25T10:40:01.565Z,1.50
2019-01-25T10:42:31.899Z,1.50
2019-01-25T10:45:04.424Z,1.50
2019-01-25T10:47:34.156Z,1.50
2019-01-25T10:50:04.949Z,1.60
2019-01-25T10:52:35.315Z,1.60
2019-01-25T10:55:06.812Z,1.70
2019-01-25T10:57:37.032Z,1.70
2019-01-25T11:00:09.731Z,1.70
2019-01-25T11:02:39.952Z,1.70
2019-01-25T11:05:12.980Z,1.70
2019-01-25T11:07:43.299Z,1.70
2019-01-25T11:10:13.821Z,1.80
2019-01-25T11:12:44.622Z,1.70
2019-01-25T11:15:17.819Z,1.70
2019-01-25T11:17:48.582Z,1.70
2019-01-25T11:20:22.934Z,1.60
2019-01-25T11:22:53.451Z,1.60
2019-01-25T11:25:29.003Z,1.70
2019-01-25T11:27:59.320Z,1.80
2019-01-25T11:30:29.949Z,1.80
2019-01-25T11:33:00.279Z,1.80
2019-01-25T11:35:30.444Z,1.80
2019-01-25T11:38:00.701Z,1.90
2019-01-25T11:40:33.241Z,1.90
2019-01-25T11:43:08.499Z,1.90
2019-01-25T11:45:35.465Z,1.90
2019-01-25T11:48:09.075Z,1.90
2019-01-25T11:50:40.312Z,1.80
2019-01-25T11:53:10.487Z,2.00
2019-01-25T11:55:40.583Z,2.00
2019-01-25T11:58:11.824Z,2.20
2019-01-25T12:00:45.358Z,2.30
2019-01-25T12:03:15.743Z,2.20
2019-01-25T12:05:45.943Z,2.40
2019-01-25T12:08:16.254Z,2.40
2019-01-25T12:10:46.904Z,2.50
2019-01-25T12:13:17.184Z,2.60
2019-01-25T12:15:47.387Z,2.70
2019-01-25T12:18:17.725Z,2.80
2019-01-25T12:20:47.967Z,2.60
2019-01-25T12:23:18.184Z,2.70
2019-01-25T12:25:48.422Z,2.70
2019-01-25T12:28:19.008Z,2.60
2019-01-25T12:30:49.400Z,2.60
2019-01-25T12:33:19.908Z,2.40
2019-01-25T12:35:50.161Z,2.50
2019-01-25T12:38:20.492Z,2.60
2019-01-25T12:40:50.789Z,2.70
2019-01-25T12:43:24.207Z,2.80
2019-01-25T12:45:52.993Z,2.80
2019-01-25T12:48:23.278Z,2.80
2019-01-25T12:51:09.646Z,2.80
2019-01-25T12:53:39.864Z,2.90
2019-01-25T12:56:10.172Z,3.00
2019-01-25T12:58:40.388Z,3.00
2019-01-25T13:01:10.671Z,3.10
2019-01-25T13:03:40.987Z,3.00
2019-01-25T13:06:11.320Z,3.00
2019-01-25T13:08:41.769Z,3.20
2019-01-25T13:11:12.368Z,3.30
2019-01-25T13:13:42.717Z,3.20
2019-01-25T13:16:12.976Z,3.20
2019-01-25T13:18:43.282Z,3.20
2019-01-25T13:21:13.606Z,3.20
2019-01-25T13:23:43.929Z,3.30
2019-01-25T13:26:14.245Z,3.20
2019-01-25T13:28:44.742Z,3.30
2019-01-25T13:31:15.123Z,3.20
2019-01-25T13:33:45.415Z,3.20
2019-01-25T13:36:15.665Z,3.40
2019-01-25T13:38:46.019Z,3.40
2019-01-25T13:41:16.700Z,3.30
2019-01-25T13:43:46.967Z,3.30
2019-01-25T13:46:17.272Z,3.30
2019-01-25T13:48:47.562Z,3.30
2019-01-25T13:51:17.727Z,3.30
2019-01-25T13:53:48.008Z,3.30
2019-01-25T13:56:18.253Z,3.40
2019-01-25T13:58:48.710Z,3.40
2019-01-25T14:01:18.976Z,3.50
2019-01-25T14:03:49.308Z,3.50
2019-01-25T14:06:19.689Z,3.50
2019-01-25T14:08:50.900Z,3.40
2019-01-25T14:11:21.262Z,3.40
2019-01-25T14:13:51.566Z,3.50
2019-01-25T14:16:21.827Z,3.40
2019-01-25T14:18:52.520Z,3.40
2019-01-25T14:21:22.779Z,3.40
2019-01-25T14:23:53.115Z,3.60
2019-01-25T14:26:23.279Z,3.70
2019-01-25T14:28:53.652Z,3.60
2019-01-25T14:31:23.866Z,3.60
2019-01-25T14:33:54.182Z,3.50
2019-01-25T14:36:24.473Z,3.40
2019-01-25T14:38:54.801Z,3.30
2019-01-25T14:41:25.227Z,3.30
2019-01-25T14:43:55.448Z,3.30
2019-01-25T14:46:25.734Z,3.20
2019-01-25T14:48:56.000Z,3.20
2019-01-25T14:51:26.348Z,3.10
2019-01-25T14:53:56.624Z,3.10
2019-01-25T14:56:26.813Z,3.10
2019-01-25T14:58:57.125Z,3.10
2019-01-25T15:01:27.450Z,3.10
2019-01-25T15:03:57.744Z,3.00
2019-01-25T15:06:29.047Z,3.00
2019-01-25T15:08:59.402Z,3.10
2019-01-25T15:11:29.734Z,3.10
2019-01-25T15:14:02.477Z,3.10
2019-01-25T15:16:32.915Z,3.00
2019-01-25T15:19:03.127Z,3.00
2019-01-25T15:21:33.407Z,3.00
2019-01-25T15:24:05.015Z,3.10
2019-01-25T15:26:35.330Z,3.10
2019-01-25T15:29:05.673Z,3.10
2019-01-25T15:31:35.925Z,3.10
2019-01-25T15:34:06.581Z,3.10
2019-01-25T15:36:36.926Z,3.10
2019-01-25T15:39:11.218Z,3.00
2019-01-25T15:41:41.574Z,2.80
2019-01-25T15:44:11.769Z,2.70
2019-01-25T15:46:42.046Z,2.70
2019-01-25T15:49:12.378Z,2.60
2019-01-25T15:51:42.718Z,2.60
2019-01-25T15:54:13.067Z,2.50
2019-01-25T15:56:43.739Z,2.40
2019-01-25T15:59:14.034Z,2.40
2019-01-25T16:01:44.294Z,2.40
2019-01-25T16:04:14.595Z,2.40
2019-01-25T16:06:45.255Z,2.40
2019-01-25T16:09:23.254Z,2.40
2019-01-25T16:11:47.931Z,2.30
2019-01-25T16:14:20.402Z,2.30
2019-01-25T16:16:51.245Z,2.40
2019-01-25T16:19:21.535Z,2.40
2019-01-25T16:21:51.949Z,2.30
2019-01-25T16:24:22.310Z,2.30
2019-01-25T16:26:52.480Z,2.20
2019-01-25T16:29:22.842Z,2.20
2019-01-25T16:31:53.391Z,2.20
2019-01-25T16:34:23.741Z,2.20
2019-01-25T16:36:54.049Z,2.20
2019-01-25T16:39:24.426Z,2.10
2019-01-25T16:41:54.687Z,2.20
2019-01-25T16:44:25.685Z,2.20
2019-01-25T16:46:56.129Z,2.10
2019-01-25T16:49:26.627Z,2.10
2019-01-25T16:51:56.799Z,2.20
2019-01-25T16:54:27.066Z,2.10
2019-01-25T16:56:57.349Z,2.10
2019-01-25T16:59:27.971Z,2.10
2019-01-25T17:01:58.330Z,2.10
2019-01-25T17:04:28.676Z,2.10
2019-01-25T17:06:59.783Z,2.20
2019-01-25T17:09:30.124Z,2.20
2019-01-25T17:12:00.299Z,2.20
2019-01-25T17:14:33.478Z,2.20
2019-01-25T17:17:02.596Z,2.20
2019-01-25T17:19:33.210Z,2.20
2019-01-25T17:22:03.453Z,2.20
2019-01-25T17:24:33.755Z,2.20
2019-01-25T17:27:04.119Z,2.20
2019-01-25T17:29:34.432Z,2.20
2019-01-25T17:32:04.769Z,2.20
2019-01-25T17:34:35.160Z,2.20
2019-01-25T17:37:05.588Z,2.20
2019-01-25T17:39:35.920Z,2.20
2019-01-25T17:42:06.283Z,2.20
2019-01-25T17:44:41.345Z,2.20
2019-01-25T17:47:08.396Z,2.20
2019-01-25T17:49:38.656Z,2.20
2019-01-25T17:52:08.921Z,2.30
2019-01-25T17:54:39.222Z,2.30
2019-01-25T17:57:09.464Z,2.20
2019-01-25T17:59:39.860Z,2.20
2019-01-25T18:02:10.707Z,2.20
2019-01-25T18:04:41.433Z,2.20
2019-01-25T18:07:11.803Z,2.20
2019-01-25T18:09:42.320Z,2.20
2019-01-25T18:12:12.672Z,2.30
2019-01-25T18:14:49.218Z,2.30
2019-01-25T18:17:15.450Z,2.20
2019-01-25T18:19:45.728Z,2.20
2019-01-25T18:22:16.044Z,2.30
2019-01-25T18:24:47.449Z,2.30
2019-01-25T18:27:17.844Z,2.30
2019-01-25T18:29:51.296Z,2.30
2019-01-25T18:32:21.499Z,2.30
2019-01-25T18:34:52.106Z,2.30
2019-01-25T18:37:22.497Z,2.30
2019-01-25T18:39:53.671Z,2.30
2019-01-25T18:42:23.947Z,2.30
2019-01-25T18:44:56.917Z,2.40
2019-01-25T18:47:27.187Z,2.40
2019-01-25T18:49:57.422Z,2.40
2019-01-25T18:52:27.908Z,2.40
2019-01-25T18:54:58.224Z,2.40
2019-01-25T18:57:28.591Z,2.40
2019-01-25T18:59:59.217Z,2.40
2019-01-25T19:02:29.564Z,2.50
2019-01-25T19:04:59.866Z,2.50
2019-01-25T19:07:30.224Z,2.50
2019-01-25T19:10:00.471Z,2.50
2019-01-25T19:12:30.897Z,2.50
2019-01-25T19:15:04.652Z,2.50
2019-01-25T19:17:33.300Z,2.50
2019-01-25T19:20:03.916Z,2.50
2019-01-25T19:22:34.718Z,2.50
2019-01-25T19:25:06.017Z,2.50
2019-01-25T19:27:36.721Z,2.50
2019-01-25T19:30:27.941Z,2.60
2019-01-25T19:32:58.506Z,2.60
2019-01-25T19:35:29.195Z,2.60
2019-01-25T19:37:59.800Z,2.60
2019-01-25T19:40:31.979Z,2.60
2019-01-25T19:43:02.764Z,2.60
2019-01-25T19:45:33.220Z,2.60
2019-01-25T19:48:03.849Z,2.60
2019-01-25T19:50:34.199Z,2.60
2019-01-25T19:53:05.184Z,2.60
2019-01-25T19:55:36.225Z,2.60
2019-01-25T19:58:08.491Z,2.60
2019-01-25T20:00:40.227Z,2.70
2019-01-25T20:03:10.670Z,2.70
2019-01-25T20:05:41.103Z,2.70
2019-01-25T20:08:12.004Z,2.70
2019-01-25T20:10:42.436Z,2.70
2019-01-25T20:13:13.457Z,2.80
2019-01-25T20:15:43.865Z,2.80
2019-01-25T20:18:15.196Z,2.80
2019-01-25T20:20:45.511Z,2.80
2019-01-25T20:23:15.827Z,2.70
2019-01-25T20:25:46.233Z,2.80
2019-01-25T20:28:16.771Z,2.80
2019-01-25T20:30:49.805Z,2.80
2019-01-25T20:33:19.180Z,2.80
2019-01-25T20:35:49.909Z,2.80
2019-01-25T20:38:20.371Z,2.80
2019-01-25T20:40:51.678Z,2.80
2019-01-25T20:43:22.014Z,2.90
2019-01-25T20:45:52.265Z,2.90
2019-01-25T20:48:22.882Z,2.90
2019-01-25T20:50:53.176Z,3.00
2019-01-25T20:53:23.955Z,2.90
2019-01-25T20:55:54.328Z,2.90
2019-01-25T20:58:24.656Z,2.90
2019-01-25T21:00:54.976Z,3.00
2019-01-25T21:03:25.521Z,3.00
2019-01-25T21:05:55.907Z,3.10
2019-01-25T21:08:26.308Z,3.10
2019-01-25T21:10:56.763Z,3.10
2019-01-25T21:13:27.179Z,3.20
2019-01-25T21:15:57.587Z,3.20
2019-01-25T21:18:27.957Z,3.20
2019-01-25T21:20:58.617Z,3.30
2019-01-25T21:23:29.055Z,3.30
2019-01-25T21:25:59.515Z,3.40
2019-01-25T21:28:30.723Z,3.40
2019-01-25T21:31:01.048Z,3.40
2019-01-25T21:33:31.393Z,3.40
2019-01-25T21:36:01.680Z,3.40
2019-01-25T21:38:31.914Z,3.30
2019-01-25T21:41:02.212Z,3.40
2019-01-25T21:43:32.560Z,3.40
2019-01-25T21:46:02.840Z,3.40
2019-01-25T21:48:33.515Z,3.50
2019-01-25T21:51:03.899Z,3.40
2019-01-25T21:53:34.358Z,3.50
2019-01-25T21:56:04.989Z,3.50
2019-01-25T21:58:35.303Z,3.50
2019-01-25T22:01:05.854Z,3.50
2019-01-25T22:03:36.216Z,3.50
2019-01-25T22:06:06.801Z,3.50
2019-01-25T22:08:37.111Z,3.60
2019-01-25T22:11:07.753Z,3.60
2019-01-25T22:13:38.102Z,3.60
2019-01-25T22:16:08.391Z,3.60
2019-01-25T22:18:39.139Z,3.60
2019-01-25T22:21:09.555Z,3.60
2019-01-25T22:23:39.934Z,3.60
2019-01-25T22:26:10.273Z,3.60
2019-01-25T22:28:40.778Z,3.70
2019-01-25T22:31:11.201Z,3.70
2019-01-25T22:33:41.636Z,3.70
2019-01-25T22:36:11.890Z,3.70
2019-01-25T22:38:42.229Z,3.70
2019-01-25T22:41:12.905Z,3.70
2019-01-25T22:43:43.578Z,3.80
2019-01-25T22:46:13.854Z,3.80
2019-01-25T22:48:44.259Z,3.80
2019-01-25T22:51:14.695Z,3.80
2019-01-25T22:53:45.015Z,3.80
2019-01-25T22:56:15.361Z,3.90
2019-01-25T22:58:45.852Z,3.90
2019-01-25T23:01:34.170Z,3.90
2019-01-25T23:04:40.066Z,3.90
2019-01-25T23:07:18.410Z,4.00
2019-01-25T23:10:02.590Z,4.00
2019-01-25T23:12:34.044Z,4.00
2019-01-25T23:15:05.403Z,4.00
2019-01-25T23:17:35.732Z,4.00
2019-01-25T23:20:08.319Z,4.10
2019-01-25T23:22:38.645Z,4.10
2019-01-25T23:25:09.931Z,4.20
2019-01-25T23:27:41.208Z,4.20
2019-01-25T23:30:14.195Z,4.20
2019-01-25T23:32:44.625Z,4.20
2019-01-25T23:35:15.090Z,4.30
2019-01-25T23:37:45.470Z,4.30
2019-01-25T23:40:16.304Z,4.30
2019-01-25T23:42:46.639Z,4.40
2019-01-25T23:45:16.925Z,4.30
2019-01-25T23:47:47.273Z,4.40
2019-01-25T23:50:17.606Z,4.40
2019-01-25T23:52:48.299Z,4.40
2019-01-25T23:55:18.702Z,4.40
2019-01-25T23:57:49.069Z,4.40
